Dragon — 9H9639 — position and weather

sailwx.info

Track history (hours):
 
Tides and Currents Weather Stations Pressure Air Temp Water Temp Dewpoint Dewpoint Depression Visibility Wind Speed Wind Dir Waves Ship Positions

Dragon

Last reported at 2016-Sep-01 09:33 UTC. Time now 2016-Sep-25 14:05 UTC.
Position N 38°13' E 013°15'.
Warning: this ship's position is 24 days out of date.

Length 18 m.

Type: Sailing vessel. MMSI: 256000717.

Date/timePositionNaut miles runAvg speedWind from/ knotsBaromVisibWave heightAir tempDewpointWater temp
2016-Sep-01 09:33N 38°13' E 013°15'4 0.5
2016-Sep-01 01:11N 38°15' E 013°20'  
2016-Aug-27 16:33N 38°16' E 015°16'2 0.3
2016-Aug-27 10:17N 38°14' E 015°15'0 0.0
2016-Aug-27 09:29N 38°14' E 015°15'0 0.0
2016-Aug-27 08:29N 38°14' E 015°15'0 0.0
2016-Aug-27 01:28N 38°14' E 015°15'3 3.2
2016-Aug-27 00:32N 38°15' E 015°18'17 5.7
2016-Aug-26 21:32N 38°16' E 015°40'7 7.0
2016-Aug-26 20:33N 38°11' E 015°35'  
Track history (hours):
 
Tides and Currents Weather Stations Pressure Air Temp Water Temp Dewpoint Dewpoint Depression Visibility Wind Speed Wind Dir Waves Ship Positions

Dragon

Last reported at 2016-Sep-01 09:33 UTC. Time now 2016-Sep-25 14:05 UTC.
Position N 38°13' E 013°15'.
Warning: this ship's position is 24 days out of date.

Length 18 m.

Type: Sailing vessel. MMSI: 256000717.

Date/timePositionNaut miles runAvg speedWind from/ knotsBaromVisibWave heightAir tempDewpointWater temp
2016-Sep-01 09:33N 38°13' E 013°15'4 0.5
2016-Sep-01 01:11N 38°15' E 013°20'  
2016-Aug-27 16:33N 38°16' E 015°16'2 0.3
2016-Aug-27 10:17N 38°14' E 015°15'0 0.0
2016-Aug-27 09:29N 38°14' E 015°15'0 0.0
2016-Aug-27 08:29N 38°14' E 015°15'0 0.0
2016-Aug-27 01:28N 38°14' E 015°15'3 3.2
2016-Aug-27 00:32N 38°15' E 015°18'17 5.7
2016-Aug-26 21:32N 38°16' E 015°40'7 7.0
2016-Aug-26 20:33N 38°11' E 015°35'  

Dump ship's entire track history